Time;durP1;ratioP1;P1;durP2;ratioP2;P2;SDS_P1;SDS_P2;PMS_P1;PMS_P2;Temp;Humidity;BMP_temperature;BMP_pressure;BME280_temperature;BME280_humidity;BME280_pressure;Samples;Min_cycle;Max_cycle;Signal;HPM_P1;HPM_P2
2023/01/22 00:01:33;;;;;;;17.10;11.57;;;6.00;61.50;;;;;;5029410;28;20264;-59
2023/01/22 00:03:59;;;;;;;19.10;11.67;;;6.10;60.70;;;;;;5029085;28;20440;-59
2023/01/22 00:06:25;;;;;;;18.07;10.93;;;6.00;60.70;;;;;;5030273;28;20670;-60
2023/01/22 00:08:51;;;;;;;16.37;11.73;;;5.90;60.80;;;;;;5031365;28;20482;-59
2023/01/22 00:11:18;;;;;;;14.83;11.10;;;5.90;61.00;;;;;;5030519;28;20424;-60
2023/01/22 00:13:44;;;;;;;17.07;11.63;;;6.00;60.80;;;;;;5025399;28;20518;-60
2023/01/22 00:16:16;;;;;;;19.10;12.40;;;5.90;60.60;;;;;;5029866;28;20468;-60
2023/01/22 00:18:43;;;;;;;16.07;11.30;;;5.90;60.80;;;;;;5029028;28;20451;-60
2023/01/22 00:21:09;;;;;;;16.60;11.50;;;5.90;60.60;;;;;;5028005;28;20444;-59
2023/01/22 00:23:35;;;;;;;19.37;11.60;;;5.80;60.40;;;;;;5017764;28;20456;-60
2023/01/22 00:26:02;;;;;;;17.77;11.57;;;5.80;60.70;;;;;;5025186;28;20440;-60
2023/01/22 00:28:28;;;;;;;18.33;10.57;;;5.80;60.60;;;;;;5029805;28;20200;-61
2023/01/22 00:31:01;;;;;;;14.40;11.80;;;5.70;60.70;;;;;;5030867;28;20904;-60
2023/01/22 00:33:27;;;;;;;15.13;11.43;;;5.50;61.10;;;;;;5029525;28;20479;-61
2023/01/22 00:35:52;;;;;;;17.13;11.20;;;5.40;62.00;;;;;;5030808;28;20506;-60
2023/01/22 00:38:18;;;;;;;14.03;10.87;;;5.60;61.70;;;;;;5027127;28;20472;-60
2023/01/22 00:40:43;;;;;;;14.47;10.23;;;5.60;61.30;;;;;;5030626;28;20193;-60
2023/01/22 00:43:09;;;;;;;16.23;10.67;;;5.70;61.40;;;;;;5029972;28;20247;-60
2023/01/22 00:45:35;;;;;;;15.47;11.07;;;5.80;61.20;;;;;;5030882;28;20296;-60
2023/01/22 00:48:01;;;;;;;15.40;10.10;;;5.80;60.90;;;;;;5025922;28;20235;-60
2023/01/22 00:50:27;;;;;;;17.53;11.70;;;5.70;60.70;;;;;;5022145;28;20189;-60
2023/01/22 00:52:52;;;;;;;17.63;10.17;;;5.70;60.80;;;;;;5026015;28;22636;-60
2023/01/22 00:55:18;;;;;;;12.93;10.77;;;5.70;60.80;;;;;;5024436;28;20923;-60
2023/01/22 00:57:43;;;;;;;16.40;11.30;;;5.70;60.80;;;;;;5030511;28;20558;-59
2023/01/22 01:00:13;;;;;;;16.80;10.43;;;5.60;60.90;;;;;;5030639;28;20200;-59
2023/01/22 01:03:25;;;;;;;14.77;10.10;;;5.60;61.40;;;;;;5030334;28;20561;-59
2023/01/22 01:05:25;;;;;;;13.77;10.60;;;5.70;61.50;;;;;;5021701;28;20450;-59
2023/01/22 01:07:51;;;;;;;17.97;11.47;;;5.50;61.40;;;;;;5043500;28;20423;-59
2023/01/22 01:10:17;;;;;;;17.90;11.77;;;5.50;61.70;;;;;;5030767;28;20432;-59
2023/01/22 01:12:43;;;;;;;14.70;10.70;;;5.40;61.80;;;;;;5030379;28;20229;-59
2023/01/22 01:15:09;;;;;;;15.27;11.30;;;5.50;62.20;;;;;;5032469;28;20440;-59
2023/01/22 01:17:35;;;;;;;15.80;10.83;;;5.60;61.90;;;;;;5031359;28;20235;-59
2023/01/22 01:20:01;;;;;;;16.87;11.10;;;5.60;61.40;;;;;;5034084;28;20431;-59
2023/01/22 01:22:26;;;;;;;16.20;11.40;;;5.70;61.30;;;;;;5031561;28;20443;-59
2023/01/22 01:24:52;;;;;;;16.70;11.00;;;5.70;61.20;;;;;;5032078;28;20196;-59
2023/01/22 01:27:17;;;;;;;16.77;11.10;;;5.70;61.30;;;;;;5030614;28;20257;-59
2023/01/22 01:29:43;;;;;;;14.07;11.20;;;5.70;61.10;;;;;;5030553;28;20201;-59
2023/01/22 01:32:08;;;;;;;18.03;11.93;;;5.80;60.90;;;;;;5031911;28;20232;-60
2023/01/22 01:34:34;;;;;;;18.53;11.87;;;5.80;60.70;;;;;;5032537;28;20276;-59
2023/01/22 01:36:59;;;;;;;17.80;12.07;;;5.90;60.80;;;;;;5029923;28;20539;-59
2023/01/22 01:39:25;;;;;;;18.33;12.87;;;5.80;60.60;;;;;;5032401;28;20197;-59
2023/01/22 01:41:51;;;;;;;21.00;11.40;;;5.70;61.10;;;;;;5031569;28;20283;-60
2023/01/22 01:44:30;;;;;;;18.27;10.90;;;5.70;61.30;;;;;;5029129;28;20541;-59
2023/01/22 01:47:29;;;;;;;19.93;12.70;;;5.80;61.30;;;;;;5029971;28;20798;-59
2023/01/22 01:49:54;;;;;;;16.80;11.17;;;5.80;61.30;;;;;;5030813;28;20428;-60
2023/01/22 01:52:20;;;;;;;15.27;11.20;;;5.90;61.00;;;;;;5031764;28;20483;-59
2023/01/22 01:54:50;;;;;;;17.07;12.17;;;5.90;60.60;;;;;;5027560;28;20197;-59
2023/01/22 01:57:22;;;;;;;13.70;10.23;;;5.90;60.50;;;;;;5032445;28;20198;-59
2023/01/22 01:59:50;;;;;;;17.17;10.73;;;5.80;60.90;;;;;;5030479;28;20446;-60
2023/01/22 02:02:18;;;;;;;16.60;11.67;;;5.90;61.00;;;;;;5032007;28;20563;-60
2023/01/22 02:04:44;;;;;;;16.90;12.03;;;5.80;60.90;;;;;;5029381;28;20433;-59
2023/01/22 02:07:09;;;;;;;18.27;11.60;;;5.80;61.00;;;;;;5030562;28;20440;-59
2023/01/22 02:09:35;;;;;;;16.27;11.33;;;5.80;61.00;;;;;;5026197;28;20197;-60
2023/01/22 02:12:02;;;;;;;14.37;10.60;;;5.80;60.80;;;;;;5029823;28;20688;-59
2023/01/22 02:14:32;;;;;;;16.10;11.40;;;5.90;60.60;;;;;;5029860;28;20200;-60
2023/01/22 02:17:17;;;;;;;16.37;11.47;;;6.00;60.50;;;;;;5028324;28;21022;-60
2023/01/22 02:19:44;;;;;;;16.13;12.57;;;6.00;60.70;;;;;;5031504;28;20951;-60
2023/01/22 02:22:29;;;;;;;13.40;10.10;;;6.00;60.70;;;;;;5032219;28;20443;-59
2023/01/22 02:24:55;;;;;;;14.27;11.10;;;6.00;60.70;;;;;;5031740;28;20485;-60
2023/01/22 02:27:21;;;;;;;16.97;10.83;;;6.00;60.90;;;;;;5031739;28;20439;-59
2023/01/22 02:29:47;;;;;;;15.90;10.60;;;6.10;60.60;;;;;;5031210;28;20561;-59
2023/01/22 02:32:13;;;;;;;16.50;10.97;;;6.10;60.40;;;;;;5030258;28;20492;-59
2023/01/22 02:34:38;;;;;;;16.23;10.90;;;6.10;60.30;;;;;;5030299;28;20189;-59
2023/01/22 02:37:04;;;;;;;13.90;10.60;;;6.10;60.50;;;;;;5031607;28;20293;-59
2023/01/22 02:39:30;;;;;;;15.63;10.30;;;6.10;60.30;;;;;;5029544;28;20565;-59
2023/01/22 02:41:57;;;;;;;18.33;11.27;;;6.10;60.10;;;;;;5031773;28;20931;-61
2023/01/22 02:44:22;;;;;;;14.93;10.97;;;6.10;60.00;;;;;;5030679;28;20683;-59
2023/01/22 02:46:48;;;;;;;15.70;10.97;;;6.20;60.20;;;;;;5031948;28;20435;-59
2023/01/22 02:49:13;;;;;;;14.63;10.90;;;6.20;59.90;;;;;;5027384;28;20621;-59
2023/01/22 02:51:39;;;;;;;14.60;10.60;;;6.30;59.90;;;;;;5026808;28;20221;-59
2023/01/22 02:54:05;;;;;;;16.90;12.37;;;6.30;59.90;;;;;;5032096;28;20193;-60
2023/01/22 02:56:33;;;;;;;16.93;11.57;;;6.30;59.70;;;;;;5026563;28;20663;-60
2023/01/22 02:59:02;;;;;;;16.43;10.73;;;6.30;59.70;;;;;;5032934;28;20193;-60
2023/01/22 03:01:29;;;;;;;16.90;11.93;;;6.30;59.70;;;;;;5032373;28;20442;-60
2023/01/22 03:04:08;;;;;;;17.77;11.80;;;6.30;59.70;;;;;;5032793;28;20456;-60
2023/01/22 03:06:33;;;;;;;17.93;11.60;;;6.30;59.70;;;;;;5030765;28;20416;-60
2023/01/22 03:08:59;;;;;;;13.87;11.00;;;6.30;59.70;;;;;;5032779;28;20443;-60
2023/01/22 03:11:28;;;;;;;14.13;9.90;;;6.20;59.60;;;;;;5030348;28;20316;-60
2023/01/22 03:22:08;;;;;;;13.40;10.47;;;6.40;59.70;;;;;;5028635;28;20455;-60
2023/01/22 03:24:34;;;;;;;15.13;10.60;;;6.40;59.60;;;;;;5017135;28;20950;-60
2023/01/22 03:27:00;;;;;;;16.13;11.27;;;6.40;59.40;;;;;;5028751;28;20443;-60
2023/01/22 03:29:26;;;;;;;12.07;10.07;;;6.30;59.40;;;;;;5028561;28;20254;-60
2023/01/22 03:31:51;;;;;;;14.00;11.20;;;6.30;59.70;;;;;;5026826;28;20487;-60
2023/01/22 03:34:19;;;;;;;18.70;11.50;;;6.30;59.50;;;;;;5016866;28;20200;-60
2023/01/22 03:36:45;;;;;;;14.53;11.33;;;6.30;59.40;;;;;;5027041;28;20280;-60
2023/01/22 03:39:11;;;;;;;16.47;11.33;;;6.40;59.50;;;;;;5024931;28;20464;-60
2023/01/22 03:41:37;;;;;;;19.47;10.70;;;6.40;59.50;;;;;;5020964;28;20530;-60
2023/01/22 03:44:03;;;;;;;13.93;10.20;;;6.40;59.50;;;;;;5030444;28;20280;-60
2023/01/22 03:46:29;;;;;;;14.80;11.40;;;6.40;59.40;;;;;;5029401;28;20432;-60
2023/01/22 03:48:55;;;;;;;14.53;10.80;;;6.30;59.50;;;;;;5026471;28;20491;-60
2023/01/22 03:51:22;;;;;;;13.43;10.03;;;6.20;59.70;;;;;;5025940;28;20471;-60
2023/01/22 03:53:48;;;;;;;15.97;10.87;;;6.20;59.80;;;;;;5028323;28;20800;-60
2023/01/22 03:56:17;;;;;;;15.87;11.87;;;6.30;59.70;;;;;;5015314;28;20889;-60
2023/01/22 03:58:43;;;;;;;15.40;10.60;;;6.30;59.90;;;;;;5026270;28;20447;-60
2023/01/22 04:01:14;;;;;;;15.03;10.90;;;6.30;60.60;;;;;;5023496;28;20494;-60
2023/01/22 04:03:40;;;;;;;14.93;11.10;;;6.30;59.90;;;;;;5024972;28;20448;-60
2023/01/22 04:06:07;;;;;;;15.47;11.63;;;6.20;59.90;;;;;;5025278;28;20805;-60
2023/01/22 04:08:34;;;;;;;15.33;10.80;;;6.20;60.00;;;;;;5027244;28;20491;-60
2023/01/22 04:11:00;;;;;;;14.37;10.90;;;6.20;60.00;;;;;;5025108;28;20452;-60
2023/01/22 04:13:27;;;;;;;14.40;10.30;;;6.30;59.80;;;;;;5026674;28;20538;-60
2023/01/22 04:15:53;;;;;;;16.17;10.90;;;6.30;59.70;;;;;;5026958;28;20435;-60
2023/01/22 04:18:19;;;;;;;14.83;10.40;;;6.30;59.80;;;;;;5028024;28;20439;-60
2023/01/22 04:20:46;;;;;;;18.80;11.73;;;6.40;59.80;;;;;;5026868;28;20198;-60
2023/01/22 04:23:12;;;;;;;15.00;10.90;;;6.40;59.60;;;;;;5023551;28;20455;-60
2023/01/22 04:25:37;;;;;;;15.17;10.83;;;6.40;59.50;;;;;;5028742;28;20444;-60
2023/01/22 04:28:03;;;;;;;17.07;11.17;;;6.40;59.50;;;;;;5026622;28;20190;-60
2023/01/22 04:30:29;;;;;;;17.90;12.00;;;6.40;59.40;;;;;;5027678;28;20197;-60
2023/01/22 04:32:55;;;;;;;17.20;11.80;;;6.40;59.50;;;;;;5027994;28;20490;-60
2023/01/22 04:35:21;;;;;;;15.30;11.10;;;6.30;59.70;;;;;;5026393;28;20447;-60
2023/01/22 04:37:46;;;;;;;15.57;10.77;;;6.30;59.90;;;;;;5027922;28;20658;-60
2023/01/22 04:40:12;;;;;;;14.17;10.90;;;6.30;59.90;;;;;;5027953;28;20193;-60
2023/01/22 04:42:39;;;;;;;14.77;11.13;;;6.40;59.90;;;;;;5029684;28;20189;-59
2023/01/22 04:45:05;;;;;;;14.87;11.70;;;6.40;59.60;;;;;;5023297;28;20201;-60
2023/01/22 04:47:30;;;;;;;14.37;10.53;;;6.40;59.60;;;;;;5033227;28;20566;-60
2023/01/22 04:49:56;;;;;;;16.07;11.57;;;6.40;59.70;;;;;;5034716;28;20579;-60
2023/01/22 04:52:21;;;;;;;15.83;12.00;;;6.40;59.60;;;;;;5034548;28;20216;-60
2023/01/22 04:54:47;;;;;;;16.77;11.83;;;6.40;59.50;;;;;;5029208;28;20193;-60
2023/01/22 04:57:13;;;;;;;14.70;10.97;;;6.40;59.50;;;;;;5032986;28;20195;-60
2023/01/22 04:59:38;;;;;;;16.30;12.20;;;6.40;59.40;;;;;;5034495;28;20193;-60
2023/01/22 05:02:04;;;;;;;16.83;10.77;;;6.50;59.40;;;;;;5034235;28;20619;-60
2023/01/22 05:04:29;;;;;;;13.90;10.87;;;6.50;59.50;;;;;;5043295;28;20334;-60
2023/01/22 05:06:55;;;;;;;13.40;10.40;;;6.50;59.50;;;;;;5031461;28;20220;-60
2023/01/22 05:09:21;;;;;;;16.43;11.87;;;6.50;59.40;;;;;;5035677;28;20304;-60
2023/01/22 05:11:47;;;;;;;15.10;10.53;;;6.50;59.50;;;;;;5026062;28;22129;-60
2023/01/22 05:14:12;;;;;;;15.37;10.67;;;6.50;59.60;;;;;;5025594;28;20447;-60
2023/01/22 05:16:38;;;;;;;18.40;11.73;;;6.40;59.70;;;;;;5031514;28;20263;-60
2023/01/22 05:19:03;;;;;;;13.60;11.17;;;6.50;59.80;;;;;;5032972;28;20197;-60
2023/01/22 05:21:29;;;;;;;15.73;11.13;;;6.50;59.70;;;;;;5031797;28;20272;-60
2023/01/22 05:23:55;;;;;;;15.00;11.13;;;6.50;59.70;;;;;;5030084;28;20251;-60
2023/01/22 05:26:20;;;;;;;14.73;11.33;;;6.50;59.60;;;;;;5030570;28;20672;-60
2023/01/22 05:28:46;;;;;;;15.60;11.93;;;6.50;59.60;;;;;;5031920;28;20197;-60
2023/01/22 05:31:12;;;;;;;13.40;10.63;;;6.50;59.50;;;;;;5028809;28;20227;-60
2023/01/22 05:33:39;;;;;;;16.00;11.10;;;6.60;59.50;;;;;;5028639;28;20224;-60
2023/01/22 05:36:06;;;;;;;15.77;11.20;;;6.60;59.50;;;;;;5031925;28;20212;-60
2023/01/22 05:38:31;;;;;;;15.40;11.60;;;6.60;59.30;;;;;;5032198;28;20505;-60
2023/01/22 05:40:57;;;;;;;16.03;11.07;;;6.60;59.40;;;;;;5033028;28;20455;-59
2023/01/22 05:43:23;;;;;;;16.70;11.17;;;6.60;59.30;;;;;;5029782;28;20554;-60
2023/01/22 05:45:48;;;;;;;14.43;11.80;;;6.60;59.30;;;;;;5032552;28;20193;-60
2023/01/22 05:48:14;;;;;;;15.57;11.40;;;6.60;59.30;;;;;;5030595;28;20189;-60
2023/01/22 05:50:40;;;;;;;15.27;10.53;;;6.70;59.40;;;;;;5029813;28;20250;-60
2023/01/22 05:53:06;;;;;;;17.00;11.70;;;6.60;59.40;;;;;;5027888;28;20217;-59
2023/01/22 05:55:32;;;;;;;15.77;12.03;;;6.70;59.50;;;;;;5030783;28;20200;-60
2023/01/22 05:57:58;;;;;;;18.63;15.70;;;6.70;59.50;;;;;;5032133;28;20197;-59
2023/01/22 06:00:24;;;;;;;15.03;11.90;;;6.70;59.50;;;;;;5031085;28;20435;-60
2023/01/22 06:02:57;;;;;;;17.93;12.80;;;6.70;59.70;;;;;;5035430;28;20247;-60
2023/01/22 06:05:23;;;;;;;19.50;12.23;;;6.70;59.70;;;;;;5032803;28;20572;-61
2023/01/22 06:07:49;;;;;;;13.80;9.83;;;6.70;59.80;;;;;;5029345;28;20451;-60
2023/01/22 06:10:15;;;;;;;13.03;10.97;;;6.70;59.90;;;;;;5030570;28;20509;-60
2023/01/22 06:12:41;;;;;;;16.10;11.10;;;6.70;59.70;;;;;;5036966;28;20327;-60
2023/01/22 06:15:07;;;;;;;14.27;11.07;;;6.80;59.80;;;;;;5032113;28;20829;-60
2023/01/22 06:17:32;;;;;;;17.97;12.53;;;6.70;59.80;;;;;;5031325;28;20189;-60
2023/01/22 06:19:58;;;;;;;17.37;12.67;;;6.80;59.90;;;;;;5031626;28;20440;-59
2023/01/22 06:22:24;;;;;;;18.80;10.70;;;6.80;59.80;;;;;;5027411;28;20212;-60
2023/01/22 06:24:49;;;;;;;14.17;10.90;;;6.80;61.70;;;;;;5031753;28;20194;-60
2023/01/22 06:27:15;;;;;;;13.13;10.07;;;7.10;63.50;;;;;;5023717;28;20294;-59
2023/01/22 06:29:40;;;;;;;13.70;10.57;;;7.50;63.20;;;;;;5032384;28;20319;-60
2023/01/22 06:32:06;;;;;;;13.20;9.87;;;7.80;63.00;;;;;;5032080;28;20244;-60
2023/01/22 06:34:32;;;;;;;14.53;11.00;;;8.10;62.20;;;;;;5032069;28;20198;-60
2023/01/22 06:36:57;;;;;;;15.67;11.10;;;8.40;61.60;;;;;;5022427;28;20208;-60
2023/01/22 06:39:23;;;;;;;15.20;11.80;;;8.60;60.70;;;;;;5031873;28;20606;-59
2023/01/22 06:41:48;;;;;;;16.20;11.17;;;8.80;59.10;;;;;;5031177;28;20212;-59
2023/01/22 06:44:14;;;;;;;16.83;12.83;;;8.90;58.50;;;;;;5032260;28;20217;-60
2023/01/22 06:46:39;;;;;;;16.70;12.83;;;9.10;57.90;;;;;;5032505;28;20537;-60
2023/01/22 06:49:05;;;;;;;13.47;10.97;;;9.10;57.00;;;;;;5029799;28;20200;-60
2023/01/22 06:51:31;;;;;;;14.10;11.20;;;9.20;56.20;;;;;;5025200;28;20223;-59
2023/01/22 06:53:58;;;;;;;15.03;11.17;;;9.10;55.00;;;;;;5022989;28;20308;-59
2023/01/22 06:56:23;;;;;;;14.77;12.17;;;8.90;54.80;;;;;;5031445;28;20457;-59
2023/01/22 06:58:49;;;;;;;16.67;11.90;;;8.70;54.90;;;;;;5032092;28;20436;-59
2023/01/22 07:01:14;;;;;;;16.53;12.10;;;8.50;54.90;;;;;;5023779;28;20185;-59
2023/01/22 07:03:41;;;;;;;16.13;12.00;;;8.40;55.30;;;;;;5040512;28;20552;-59
2023/01/22 07:06:08;;;;;;;17.70;11.97;;;8.20;55.80;;;;;;5030450;28;20194;-60
2023/01/22 07:08:34;;;;;;;15.87;11.70;;;8.00;56.20;;;;;;5031561;28;20448;-60
2023/01/22 07:11:00;;;;;;;14.67;11.23;;;7.90;56.50;;;;;;5026110;28;20547;-59
2023/01/22 07:13:26;;;;;;;15.87;11.90;;;7.80;56.80;;;;;;5036475;28;20232;-59
2023/01/22 07:15:51;;;;;;;17.57;13.00;;;7.70;57.20;;;;;;5028833;28;20938;-59
2023/01/22 07:18:19;;;;;;;15.27;12.30;;;7.60;57.60;;;;;;5030334;28;20189;-59
2023/01/22 07:20:46;;;;;;;15.70;12.67;;;7.50;57.90;;;;;;5030152;28;20561;-59
2023/01/22 07:23:12;;;;;;;18.70;13.37;;;7.40;58.20;;;;;;5028525;28;20935;-59
2023/01/22 07:25:37;;;;;;;20.00;13.53;;;7.40;58.40;;;;;;5028587;28;20490;-59
2023/01/22 07:28:05;;;;;;;15.63;12.47;;;7.30;58.50;;;;;;5031295;28;20777;-59
2023/01/22 07:30:31;;;;;;;17.20;13.17;;;7.30;58.70;;;;;;5025997;28;20193;-59
2023/01/22 07:32:59;;;;;;;16.97;14.13;;;7.30;59.00;;;;;;5028498;28;20537;-59
2023/01/22 07:35:25;;;;;;;17.57;13.20;;;7.30;59.10;;;;;;5025732;28;20237;-59
2023/01/22 07:37:52;;;;;;;20.53;13.43;;;7.20;59.20;;;;;;5028068;28;20511;-59
2023/01/22 07:40:18;;;;;;;18.50;12.47;;;7.20;59.50;;;;;;5021848;28;21001;-59
2023/01/22 07:42:44;;;;;;;16.03;12.40;;;7.20;59.50;;;;;;5030560;28;20502;-59
2023/01/22 07:45:10;;;;;;;20.70;13.67;;;7.20;59.50;;;;;;5028918;28;20428;-59
2023/01/22 07:47:35;;;;;;;19.17;14.10;;;7.20;59.50;;;;;;5031575;28;20196;-59
2023/01/22 07:50:01;;;;;;;18.30;13.60;;;7.20;59.60;;;;;;5028856;28;20193;-59
2023/01/22 07:52:27;;;;;;;18.87;12.90;;;7.20;59.60;;;;;;5027476;28;20312;-59
2023/01/22 07:54:52;;;;;;;16.87;12.57;;;7.20;60.30;;;;;;5034649;28;20259;-59
2023/01/22 07:57:18;;;;;;;21.10;13.80;;;7.20;59.50;;;;;;5026708;28;20272;-59
2023/01/22 07:59:44;;;;;;;18.80;12.60;;;7.10;59.40;;;;;;5028133;28;20201;-59
2023/01/22 08:02:14;;;;;;;18.57;12.63;;;7.10;59.40;;;;;;5028948;28;20213;-59
2023/01/22 08:04:42;;;;;;;22.13;14.17;;;7.10;59.50;;;;;;5023789;28;20201;-59
2023/01/22 08:07:16;;;;;;;19.60;13.03;;;7.10;59.60;;;;;;5027633;28;21299;-59
2023/01/22 08:09:42;;;;;;;20.33;13.53;;;7.10;60.00;;;;;;5026390;28;20452;-59
2023/01/22 08:12:08;;;;;;;17.43;13.80;;;7.10;60.10;;;;;;5023411;28;20490;-59
2023/01/22 08:14:33;;;;;;;18.73;12.90;;;7.10;60.00;;;;;;5026472;28;20435;-58
2023/01/22 08:16:59;;;;;;;20.80;13.73;;;7.10;59.90;;;;;;5027575;28;20743;-59
2023/01/22 08:19:24;;;;;;;16.47;11.87;;;7.10;59.80;;;;;;5028263;28;20190;-59
2023/01/22 08:21:50;;;;;;;18.07;13.30;;;7.10;59.80;;;;;;5027838;28;20228;-59
2023/01/22 08:24:16;;;;;;;15.80;12.27;;;7.10;59.80;;;;;;5025383;28;20267;-59
2023/01/22 08:26:44;;;;;;;18.53;12.77;;;7.10;59.80;;;;;;5022603;28;20197;-59
2023/01/22 08:29:09;;;;;;;18.43;12.90;;;7.10;59.90;;;;;;5031660;28;20424;-59
2023/01/22 08:31:35;;;;;;;17.60;13.73;;;7.20;59.90;;;;;;5029754;28;20880;-60
2023/01/22 08:34:02;;;;;;;17.50;11.80;;;7.10;60.00;;;;;;5023936;28;20221;-58
2023/01/22 08:36:28;;;;;;;18.70;13.70;;;7.20;60.00;;;;;;5021793;28;20455;-57
2023/01/22 08:38:54;;;;;;;20.97;14.13;;;7.20;60.00;;;;;;5011639;28;20197;-58
2023/01/22 08:41:20;;;;;;;19.03;12.80;;;7.20;60.10;;;;;;5021450;28;20740;-58
2023/01/22 08:43:46;;;;;;;21.03;14.10;;;7.10;60.20;;;;;;5029919;28;20452;-58
2023/01/22 08:46:12;;;;;;;20.03;14.17;;;7.10;60.40;;;;;;5025772;28;20483;-58
2023/01/22 08:48:38;;;;;;;19.17;13.93;;;7.20;60.60;;;;;;5025671;28;20197;-58
2023/01/22 08:51:04;;;;;;;20.60;13.80;;;7.20;60.70;;;;;;5028610;28;20649;-58
2023/01/22 08:53:30;;;;;;;17.23;13.00;;;7.10;60.70;;;;;;5023277;28;20483;-58
2023/01/22 08:55:55;;;;;;;20.70;13.97;;;7.20;60.80;;;;;;5024511;28;20232;-58
2023/01/22 08:58:23;;;;;;;22.20;13.17;;;7.20;60.70;;;;;;5028460;28;20789;-58
2023/01/22 09:00:48;;;;;;;20.70;13.93;;;7.30;60.70;;;;;;5029761;28;20188;-58
2023/01/22 09:03:14;;;;;;;19.10;14.30;;;7.20;60.60;;;;;;5042481;28;20813;-58
2023/01/22 09:05:39;;;;;;;19.23;12.97;;;7.30;60.60;;;;;;5030443;28;20192;-58
2023/01/22 09:08:06;;;;;;;19.90;13.53;;;7.20;60.40;;;;;;5027588;28;20620;-58
2023/01/22 09:10:32;;;;;;;19.57;13.80;;;7.30;60.50;;;;;;5029142;28;20247;-59
2023/01/22 09:13:01;;;;;;;20.07;13.57;;;7.30;60.30;;;;;;5027760;28;20483;-59
2023/01/22 09:15:27;;;;;;;18.60;12.63;;;7.30;60.30;;;;;;5030157;28;20628;-58
2023/01/22 09:17:52;;;;;;;21.70;14.37;;;7.40;60.30;;;;;;5028995;28;20478;-58
2023/01/22 09:20:18;;;;;;;19.40;13.80;;;7.40;60.10;;;;;;5029227;28;21023;-58
2023/01/22 09:22:44;;;;;;;21.90;13.90;;;7.30;60.10;;;;;;5029805;28;20236;-59
2023/01/22 09:25:10;;;;;;;20.80;14.27;;;7.40;60.40;;;;;;5030092;28;20193;-59
2023/01/22 09:27:36;;;;;;;17.80;13.20;;;7.40;60.30;;;;;;5030202;28;20427;-58
2023/01/22 09:30:02;;;;;;;18.53;13.47;;;7.40;60.10;;;;;;5029523;28;20225;-59
2023/01/22 09:32:27;;;;;;;20.93;14.73;;;7.50;60.00;;;;;;5030612;28;20339;-59
2023/01/22 09:34:53;;;;;;;17.67;13.00;;;7.50;59.90;;;;;;5035012;28;20868;-59
2023/01/22 09:37:19;;;;;;;21.87;14.53;;;7.50;60.00;;;;;;5035665;28;20584;-59
2023/01/22 09:39:48;;;;;;;19.43;12.90;;;7.50;60.00;;;;;;5031979;28;20189;-59
2023/01/22 09:42:23;;;;;;;20.77;13.90;;;7.40;59.80;;;;;;5031332;28;20641;-59
2023/01/22 09:44:53;;;;;;;17.93;13.93;;;7.30;60.20;;;;;;5032862;28;20450;-59
2023/01/22 09:47:35;;;;;;;21.90;13.83;;;7.40;60.40;;;;;;5021522;28;20423;-59
2023/01/22 09:50:12;;;;;;;19.23;13.73;;;7.30;60.30;;;;;;5030558;28;20490;-60
2023/01/22 09:52:38;;;;;;;21.90;14.40;;;7.30;60.30;;;;;;5032387;28;20513;-59
2023/01/22 09:55:15;;;;;;;23.10;15.10;;;7.40;60.40;;;;;;5032755;28;20503;-59
2023/01/22 09:57:47;;;;;;;17.90;14.20;;;7.50;60.30;;;;;;5033164;28;20439;-59
2023/01/22 10:00:22;;;;;;;20.80;15.57;;;7.50;60.00;;;;;;5033321;28;20425;-59
2023/01/22 10:03:14;;;;;;;22.00;14.83;;;7.60;60.10;;;;;;5031574;28;20850;-60
2023/01/22 10:05:43;;;;;;;23.53;16.20;;;7.60;59.90;;;;;;5036337;28;20554;-59
2023/01/22 10:08:22;;;;;;;19.30;14.67;;;7.70;59.80;;;;;;5033054;28;20428;-59
2023/01/22 10:10:50;;;;;;;20.73;14.90;;;7.70;59.90;;;;;;5029770;28;20827;-59
2023/01/22 10:13:22;;;;;;;19.07;13.83;;;7.80;59.90;;;;;;5029678;28;20858;-60
2023/01/22 10:15:50;;;;;;;23.23;15.63;;;7.80;59.50;;;;;;5031413;28;20454;-59
2023/01/22 10:18:53;;;;;;;20.07;14.00;;;7.90;59.50;;;;;;5020560;28;20436;-60
2023/01/22 10:21:38;;;;;;;21.60;15.30;;;7.90;59.40;;;;;;5027214;28;20447;-60
2023/01/22 10:24:04;;;;;;;21.57;14.70;;;8.00;59.30;;;;;;5027179;28;20444;-60
2023/01/22 10:26:43;;;;;;;20.67;14.03;;;8.00;59.10;;;;;;5030211;28;20922;-60
2023/01/22 10:29:13;;;;;;;19.37;15.80;;;8.00;59.20;;;;;;5034447;28;20240;-59
2023/01/22 10:31:46;;;;;;;22.73;16.00;;;8.00;59.50;;;;;;5021309;28;20476;-59
2023/01/22 10:34:34;;;;;;;21.67;14.60;;;8.00;59.50;;;;;;5023416;28;20454;-59
2023/01/22 10:37:20;;;;;;;26.53;15.60;;;8.00;59.30;;;;;;5026338;28;20444;-59
2023/01/22 10:39:47;;;;;;;24.63;15.00;;;8.00;59.20;;;;;;5022787;28;20514;-59
2023/01/22 10:42:24;;;;;;;21.00;15.20;;;8.10;59.30;;;;;;5027430;28;20478;-59
2023/01/22 10:44:53;;;;;;;22.83;14.10;;;8.00;59.40;;;;;;5030672;28;20954;-60
2023/01/22 10:47:22;;;;;;;21.90;13.67;;;8.00;59.40;;;;;;5030302;28;20439;-59
2023/01/22 10:49:59;;;;;;;17.43;13.00;;;8.10;59.30;;;;;;5022875;28;20459;-59
2023/01/22 10:52:33;;;;;;;20.17;14.50;;;8.10;59.20;;;;;;5029066;28;20491;-59
2023/01/22 10:54:59;;;;;;;20.30;14.53;;;8.10;59.10;;;;;;5018088;28;20443;-59
2023/01/22 10:57:35;;;;;;;19.60;12.80;;;8.10;58.90;;;;;;5027172;28;20479;-60
2023/01/22 11:00:13;;;;;;;23.50;14.27;;;8.10;59.10;;;;;;5031266;28;20440;-59
2023/01/22 11:02:44;;;;;;;22.73;13.20;;;8.10;59.20;;;;;;5015721;28;20446;-59
2023/01/22 11:05:25;;;;;;;15.30;11.70;;;8.10;59.20;;;;;;5027766;28;20951;-59
2023/01/22 11:08:00;;;;;;;22.23;11.63;;;8.20;59.10;;;;;;5031677;28;20533;-59
2023/01/22 11:10:44;;;;;;;15.13;12.00;;;8.20;58.80;;;;;;5025962;28;20439;-59
2023/01/22 11:13:22;;;;;;;16.50;13.13;;;8.30;58.90;;;;;;5030962;28;20480;-60
2023/01/22 11:16:15;;;;;;;17.83;12.40;;;8.30;58.50;;;;;;5031971;28;21007;-60
2023/01/22 11:18:59;;;;;;;20.93;12.57;;;8.30;58.40;;;;;;5028583;28;20454;-59
2023/01/22 11:21:31;;;;;;;17.80;12.87;;;8.30;58.70;;;;;;5028953;28;20448;-60
2023/01/22 11:24:05;;;;;;;18.10;12.20;;;8.30;58.50;;;;;;5028959;28;20455;-60
2023/01/22 11:26:47;;;;;;;23.23;14.80;;;8.20;58.50;;;;;;5026178;28;20496;-59
2023/01/22 11:29:18;;;;;;;20.90;13.40;;;8.30;58.70;;;;;;5024306;28;20450;-60
2023/01/22 11:32:21;;;;;;;19.20;12.83;;;8.30;58.70;;;;;;5027488;28;20487;-60
2023/01/22 11:35:11;;;;;;;16.47;11.77;;;8.30;58.80;;;;;;5018126;28;20451;-60
2023/01/22 11:37:56;;;;;;;14.77;12.47;;;8.30;59.00;;;;;;5031541;28;20447;-60
2023/01/22 11:40:29;;;;;;;17.13;11.60;;;8.30;59.00;;;;;;5023088;28;20513;-61
2023/01/22 11:43:19;;;;;;;17.57;12.77;;;8.40;58.80;;;;;;5029082;28;20443;-61
2023/01/22 11:46:03;;;;;;;16.47;12.63;;;8.40;58.50;;;;;;5027292;28;20498;-60
2023/01/22 11:49:12;;;;;;;15.37;11.43;;;8.40;58.60;;;;;;5029744;28;20444;-61
2023/01/22 11:51:56;;;;;;;16.13;12.37;;;8.50;58.40;;;;;;5028459;28;20502;-61
2023/01/22 11:54:33;;;;;;;14.80;11.40;;;8.30;58.50;;;;;;5034926;28;20447;-60
2023/01/22 11:57:17;;;;;;;19.70;14.47;;;8.40;58.60;;;;;;5022389;28;20449;-60
2023/01/22 11:59:54;;;;;;;19.40;13.10;;;8.30;58.70;;;;;;5025948;28;20511;-60
2023/01/22 12:02:58;;;;;;;18.77;14.40;;;8.40;58.60;;;;;;5030777;28;20432;-60
2023/01/22 12:05:24;;;;;;;19.80;13.10;;;8.40;58.40;;;;;;5027160;28;20456;-60
2023/01/22 12:08:17;;;;;;;20.00;13.87;;;8.50;58.60;;;;;;5029948;28;20448;-61
2023/01/22 12:11:07;;;;;;;19.07;13.57;;;8.40;58.60;;;;;;5027425;28;20224;-60
2023/01/22 12:14:09;;;;;;;17.23;13.47;;;8.50;58.80;;;;;;5024232;28;20524;-61
2023/01/22 12:17:31;;;;;;;18.47;13.33;;;8.50;58.70;;;;;;5030966;28;20455;-61
2023/01/22 12:20:12;;;;;;;18.73;13.67;;;8.40;58.70;;;;;;5014582;28;20464;-60
2023/01/22 12:22:42;;;;;;;18.00;13.07;;;8.50;58.70;;;;;;5007341;28;20795;-60
2023/01/22 12:25:21;;;;;;;17.10;12.47;;;8.50;58.60;;;;;;5025685;28;20578;-60
2023/01/22 12:27:58;;;;;;;18.97;13.63;;;8.50;58.50;;;;;;5035051;28;20809;-60
2023/01/22 12:30:38;;;;;;;17.80;13.37;;;8.40;58.70;;;;;;5028468;28;20454;-60
2023/01/22 12:33:05;;;;;;;17.63;12.60;;;8.40;58.90;;;;;;5026936;28;21014;-61
2023/01/22 12:35:31;;;;;;;19.13;13.10;;;8.40;58.70;;;;;;5026237;28;20436;-61
2023/01/22 12:38:10;;;;;;;20.50;13.37;;;8.40;58.70;;;;;;5030564;28;20447;-60
2023/01/22 12:40:55;;;;;;;21.07;14.27;;;8.50;58.70;;;;;;5025497;28;20563;-60
2023/01/22 12:43:34;;;;;;;19.83;13.90;;;8.50;58.50;;;;;;5022682;28;20847;-60
2023/01/22 12:46:05;;;;;;;21.50;13.30;;;8.50;58.60;;;;;;5028794;28;20435;-60
2023/01/22 12:48:37;;;;;;;19.13;14.17;;;8.50;58.80;;;;;;5027124;28;20447;-60
2023/01/22 12:51:02;;;;;;;20.10;14.57;;;8.50;59.00;;;;;;5025272;28;20448;-60
2023/01/22 12:53:30;;;;;;;19.37;13.37;;;8.50;59.60;;;;;;5027548;28;20491;-60
2023/01/22 12:55:57;;;;;;;16.63;13.80;;;8.50;59.10;;;;;;5028456;28;20205;-60
2023/01/22 12:58:25;;;;;;;17.97;13.27;;;8.40;58.80;;;;;;5027697;28;22009;-60